Time;durP1;ratioP1;P1;durP2;ratioP2;P2;SDS_P1;SDS_P2;PMS_P1;PMS_P2;Temp;Humidity;BMP_temperature;BMP_pressure;BME280_temperature;BME280_humidity;BME280_pressure;Samples;Min_cycle;Max_cycle;Signal;HPM_P1;HPM_P2
2021/08/24 00:01:21;;;;;;;12.80;11.60;;;12.60;99.90;;;;;;4967296;28;20503;-56
2021/08/24 00:03:48;;;;;;;12.90;11.40;;;12.60;99.90;;;;;;4962028;28;20533;-56
2021/08/24 00:06:15;;;;;;;14.77;13.27;;;12.50;99.90;;;;;;4962051;28;20828;-54
2021/08/24 00:08:42;;;;;;;13.47;12.20;;;12.60;99.90;;;;;;4962555;28;20445;-52
2021/08/24 00:11:10;;;;;;;11.70;10.50;;;12.50;99.90;;;;;;4961539;28;20510;-56
2021/08/24 00:13:39;;;;;;;12.10;10.90;;;12.50;99.90;;;;;;4960980;28;20522;-54
2021/08/24 00:16:09;;;;;;;17.00;10.37;;;12.40;99.90;;;;;;4971580;28;20476;-55
2021/08/24 00:18:36;;;;;;;12.57;11.27;;;12.40;99.90;;;;;;4981348;28;20490;-57
2021/08/24 00:21:04;;;;;;;12.27;11.07;;;12.40;99.90;;;;;;4977318;28;20498;-59
2021/08/24 00:23:32;;;;;;;10.67;9.63;;;12.40;99.90;;;;;;4961791;28;20466;-59
2021/08/24 00:26:00;;;;;;;14.40;10.57;;;12.40;99.90;;;;;;4969617;28;20603;-57
2021/08/24 00:28:28;;;;;;;10.70;9.60;;;12.30;99.90;;;;;;4981147;28;20476;-59
2021/08/24 00:30:57;;;;;;;9.97;9.17;;;12.30;99.90;;;;;;4975227;28;20937;-58
2021/08/24 00:33:25;;;;;;;10.23;9.23;;;12.30;99.90;;;;;;4961879;29;20498;-59
2021/08/24 00:35:53;;;;;;;10.07;9.07;;;12.30;99.90;;;;;;4975122;28;20497;-59
2021/08/24 00:38:23;;;;;;;9.97;8.97;;;12.30;99.90;;;;;;4980831;28;20796;-59
2021/08/24 00:40:53;;;;;;;12.00;9.20;;;12.20;99.90;;;;;;4980735;28;20906;-59
2021/08/24 00:43:20;;;;;;;8.10;7.30;;;12.20;99.90;;;;;;4977291;28;20498;-59
2021/08/24 00:45:56;;;;;;;13.83;8.70;;;12.30;99.90;;;;;;4961684;29;20522;-58
2021/08/24 00:48:28;;;;;;;9.20;8.30;;;12.20;99.90;;;;;;4968879;28;20473;-59
2021/08/24 00:50:56;;;;;;;9.43;7.60;;;12.20;99.90;;;;;;4961856;28;20498;-59
2021/08/24 00:53:25;;;;;;;9.17;8.27;;;12.10;99.90;;;;;;4960936;28;20531;-56
2021/08/24 00:55:55;;;;;;;9.73;8.77;;;12.20;99.90;;;;;;4964673;28;20523;-57
2021/08/24 00:58:22;;;;;;;9.60;8.60;;;12.20;99.90;;;;;;4961079;29;20473;-58
2021/08/24 01:00:49;;;;;;;8.73;7.93;;;12.20;99.90;;;;;;4968762;28;20499;-59
2021/08/24 01:03:19;;;;;;;9.17;7.70;;;12.10;99.90;;;;;;4964621;28;20525;-57
2021/08/24 01:05:50;;;;;;;7.60;6.90;;;12.10;99.90;;;;;;4979890;28;20501;-57
2021/08/24 01:08:27;;;;;;;7.40;6.70;;;12.10;99.90;;;;;;4980329;28;20468;-59
2021/08/24 01:11:08;;;;;;;7.90;6.97;;;12.10;99.90;;;;;;4980339;28;20568;-57
2021/08/24 01:13:40;;;;;;;11.63;7.93;;;12.00;99.90;;;;;;4965763;28;20935;-59
2021/08/24 01:16:17;;;;;;;8.30;7.50;;;12.00;99.90;;;;;;4970031;28;20493;-58
2021/08/24 01:18:59;;;;;;;9.33;8.47;;;12.00;99.90;;;;;;4979300;28;20532;-56
2021/08/24 01:22:12;;;;;;;10.50;6.90;;;11.90;99.90;;;;;;4973447;28;20473;-59
2021/08/24 01:24:44;;;;;;;14.20;7.40;;;11.90;99.90;;;;;;4966985;28;20490;-59
2021/08/24 01:27:14;;;;;;;7.53;6.57;;;11.90;99.90;;;;;;4961276;29;20513;-56
2021/08/24 01:30:15;;;;;;;8.20;7.30;;;11.90;99.90;;;;;;4978086;28;20548;-55
2021/08/24 01:33:10;;;;;;;9.60;7.37;;;11.90;99.90;;;;;;4961911;28;20477;-60
2021/08/24 01:36:05;;;;;;;7.93;7.23;;;11.80;99.90;;;;;;4952626;28;20506;-58
2021/08/24 01:38:42;;;;;;;11.50;7.97;;;11.80;99.90;;;;;;4979716;28;20789;-60
2021/08/24 01:41:13;;;;;;;9.10;8.20;;;11.80;99.90;;;;;;4979886;28;20487;-60
2021/08/24 01:43:46;;;;;;;9.93;8.87;;;11.70;99.90;;;;;;4979852;28;20470;-59
2021/08/24 01:46:21;;;;;;;9.87;7.60;;;11.70;99.90;;;;;;4974179;28;20493;-57
2021/08/24 01:48:52;;;;;;;9.20;8.30;;;11.70;99.90;;;;;;4972126;28;20504;-59
2021/08/24 01:51:23;;;;;;;8.33;7.53;;;11.70;99.90;;;;;;4963261;28;20518;-58
2021/08/24 01:53:54;;;;;;;9.80;8.80;;;11.70;99.90;;;;;;4970359;28;20540;-59
2021/08/24 01:56:25;;;;;;;10.07;8.40;;;11.60;99.90;;;;;;4965272;28;20924;-59
2021/08/24 01:58:58;;;;;;;12.13;8.57;;;11.50;99.90;;;;;;4959658;28;20502;-59
2021/08/24 02:01:33;;;;;;;9.67;8.30;;;11.60;99.90;;;;;;4979181;28;20525;-60
2021/08/24 02:04:02;;;;;;;11.53;8.93;;;11.60;99.90;;;;;;4970084;28;20492;-60
2021/08/24 02:06:35;;;;;;;11.33;9.20;;;11.60;99.90;;;;;;4960398;28;20513;-60
2021/08/24 02:09:06;;;;;;;10.60;9.50;;;11.50;99.90;;;;;;4960551;28;20541;-59
2021/08/24 02:11:36;;;;;;;11.50;9.40;;;11.50;99.90;;;;;;4969031;28;20441;-60
2021/08/24 02:14:08;;;;;;;9.40;8.60;;;11.50;99.90;;;;;;4978116;28;20588;-59
2021/08/24 02:16:37;;;;;;;9.90;8.47;;;11.50;99.90;;;;;;4979733;28;20470;-58
2021/08/24 02:19:18;;;;;;;11.00;9.30;;;11.40;99.90;;;;;;4979901;28;20482;-60
2021/08/24 02:21:51;;;;;;;9.10;8.30;;;11.40;99.90;;;;;;4979182;28;20802;-59
2021/08/24 02:24:22;;;;;;;9.37;8.47;;;11.40;99.90;;;;;;4978943;28;20903;-58
2021/08/24 02:26:50;;;;;;;11.90;9.10;;;11.30;99.90;;;;;;4960767;28;20747;-59
2021/08/24 02:29:17;;;;;;;9.20;8.30;;;11.30;99.90;;;;;;4959861;29;20509;-58
2021/08/24 02:31:50;;;;;;;9.63;8.70;;;11.30;99.90;;;;;;4959421;29;21006;-58
2021/08/24 02:34:24;;;;;;;10.20;9.10;;;11.30;99.90;;;;;;4959580;29;20530;-56
2021/08/24 02:37:00;;;;;;;9.13;8.13;;;11.30;99.90;;;;;;4959952;29;20473;-59
2021/08/24 02:39:33;;;;;;;9.70;8.70;;;11.20;99.90;;;;;;4959455;29;20470;-58
2021/08/24 02:42:08;;;;;;;8.63;7.73;;;11.20;99.90;;;;;;4959400;29;20477;-60
2021/08/24 02:44:41;;;;;;;10.07;7.47;;;11.20;99.90;;;;;;4959117;29;20473;-60
2021/08/24 02:47:09;;;;;;;11.00;7.87;;;11.10;99.90;;;;;;4974289;28;20491;-60
2021/08/24 02:49:36;;;;;;;8.30;7.50;;;11.10;99.90;;;;;;4977409;28;20472;-60
2021/08/24 02:52:09;;;;;;;8.23;7.40;;;11.00;99.90;;;;;;4978404;28;20544;-58
2021/08/24 02:54:41;;;;;;;13.67;8.03;;;11.00;99.90;;;;;;4978009;28;20512;-60
2021/08/24 02:57:09;;;;;;;8.70;7.50;;;11.10;99.90;;;;;;4977924;28;20528;-58
2021/08/24 02:59:37;;;;;;;7.63;6.93;;;11.00;99.90;;;;;;4972223;28;20928;-58
2021/08/24 03:02:05;;;;;;;7.80;7.00;;;10.90;99.90;;;;;;4960366;28;20533;-59
2021/08/24 03:04:32;;;;;;;6.77;6.10;;;10.90;99.90;;;;;;4961062;28;20476;-58
2021/08/24 03:07:04;;;;;;;10.13;8.43;;;10.80;99.90;;;;;;4975351;28;20823;-60
2021/08/24 03:09:35;;;;;;;7.53;6.73;;;10.70;99.90;;;;;;4966350;28;20505;-60
2021/08/24 03:12:10;;;;;;;12.40;7.60;;;10.80;99.90;;;;;;4959127;28;20875;-60
2021/08/24 03:14:45;;;;;;;8.47;7.60;;;10.80;99.90;;;;;;4959001;29;20530;-61
2021/08/24 03:17:16;;;;;;;10.47;8.17;;;10.80;99.90;;;;;;4959391;29;20458;-59
2021/08/24 03:19:45;;;;;;;9.57;8.67;;;10.80;99.90;;;;;;4964338;28;20509;-60
2021/08/24 03:22:14;;;;;;;10.60;9.50;;;10.80;99.90;;;;;;4965397;28;20502;-60
2021/08/24 03:24:43;;;;;;;11.20;10.10;;;10.80;99.90;;;;;;4965241;28;20461;-60
2021/08/24 03:27:11;;;;;;;11.33;10.23;;;10.80;99.90;;;;;;4965564;29;20463;-61
2021/08/24 03:29:39;;;;;;;14.67;10.90;;;10.80;99.90;;;;;;4965281;29;20466;-61
2021/08/24 03:32:08;;;;;;;11.30;10.10;;;10.80;99.90;;;;;;4965440;29;20950;-61
2021/08/24 03:34:35;;;;;;;11.40;10.20;;;10.80;99.90;;;;;;4965465;28;20947;-61
2021/08/24 03:37:02;;;;;;;10.13;9.00;;;10.70;99.90;;;;;;4965416;28;20467;-60
2021/08/24 03:39:29;;;;;;;12.40;10.80;;;10.60;99.90;;;;;;4965441;29;20466;-61
2021/08/24 03:41:57;;;;;;;10.57;9.57;;;10.50;99.90;;;;;;4965563;28;20508;-61
2021/08/24 03:44:24;;;;;;;9.93;9.10;;;10.50;99.90;;;;;;4965577;28;20778;-61
2021/08/24 03:46:51;;;;;;;12.57;11.27;;;10.50;99.90;;;;;;4964945;28;20509;-60
2021/08/24 03:49:18;;;;;;;13.00;10.97;;;10.60;99.90;;;;;;4965031;29;20509;-60
2021/08/24 03:51:45;;;;;;;10.83;9.83;;;10.60;99.90;;;;;;4964979;28;20466;-60
2021/08/24 03:54:12;;;;;;;10.87;9.00;;;10.50;99.90;;;;;;4964466;28;20497;-61
2021/08/24 03:56:41;;;;;;;10.57;9.40;;;10.50;99.90;;;;;;4965123;28;20498;-61
2021/08/24 03:59:09;;;;;;;9.83;7.73;;;10.50;99.90;;;;;;4965754;29;20505;-61
2021/08/24 04:01:37;;;;;;;8.57;7.60;;;10.50;99.90;;;;;;4964829;29;20522;-60
2021/08/24 04:04:04;;;;;;;12.20;8.17;;;10.40;99.90;;;;;;4964931;29;20502;-61
2021/08/24 04:06:31;;;;;;;7.67;6.97;;;10.40;99.90;;;;;;4965295;28;20834;-61
2021/08/24 04:08:58;;;;;;;12.47;9.30;;;10.40;99.90;;;;;;4965378;28;20929;-61
2021/08/24 04:11:28;;;;;;;8.53;7.57;;;10.40;99.90;;;;;;4964372;29;20472;-61
2021/08/24 04:13:55;;;;;;;7.80;7.00;;;10.40;99.90;;;;;;4964870;29;20513;-61
2021/08/24 04:16:23;;;;;;;12.33;8.83;;;10.30;99.90;;;;;;4964704;29;20470;-61
2021/08/24 04:18:50;;;;;;;10.43;7.80;;;10.30;99.90;;;;;;4965303;28;20470;-61
2021/08/24 04:21:19;;;;;;;12.20;9.50;;;10.30;99.90;;;;;;4965220;29;20474;-61
2021/08/24 04:23:48;;;;;;;10.33;9.20;;;10.20;99.90;;;;;;4965013;28;20485;-61
2021/08/24 04:26:16;;;;;;;9.87;8.03;;;10.20;99.90;;;;;;4964944;28;20463;-61
2021/08/24 04:28:43;;;;;;;9.60;8.70;;;10.20;99.90;;;;;;4963689;29;20502;-61
2021/08/24 04:31:14;;;;;;;10.57;8.40;;;10.20;99.90;;;;;;4959702;28;20510;-61
2021/08/24 04:33:43;;;;;;;9.37;8.37;;;10.20;99.90;;;;;;4960359;29;20441;-61
2021/08/24 04:36:10;;;;;;;8.77;7.80;;;10.20;99.90;;;;;;4960243;29;20502;-61
2021/08/24 04:38:37;;;;;;;10.50;7.87;;;10.20;99.90;;;;;;4961336;29;20581;-58
2021/08/24 04:41:06;;;;;;;9.77;7.67;;;10.20;99.90;;;;;;4961487;29;20490;-60
2021/08/24 04:43:33;;;;;;;14.70;8.77;;;10.20;99.90;;;;;;4961380;29;20470;-61
2021/08/24 04:46:00;;;;;;;9.37;7.83;;;10.20;99.90;;;;;;4961850;29;20467;-60
2021/08/24 04:48:27;;;;;;;10.87;8.90;;;10.20;99.90;;;;;;4961671;29;20963;-61
2021/08/24 04:51:00;;;;;;;10.03;9.03;;;10.20;99.90;;;;;;4961683;29;20521;-61
2021/08/24 04:53:29;;;;;;;9.53;8.40;;;10.20;99.90;;;;;;4961251;29;20471;-61
2021/08/24 04:55:56;;;;;;;9.43;8.20;;;10.30;99.90;;;;;;4961474;29;20582;-61
2021/08/24 04:58:23;;;;;;;13.13;8.80;;;10.30;99.90;;;;;;4961404;29;20490;-62
2021/08/24 05:00:50;;;;;;;11.30;9.10;;;10.30;99.90;;;;;;4961150;29;20466;-62
2021/08/24 05:03:17;;;;;;;15.10;9.60;;;10.30;99.90;;;;;;4974170;28;20788;-62
2021/08/24 05:05:44;;;;;;;13.57;10.80;;;10.30;99.90;;;;;;4969383;28;20527;-62
2021/08/24 05:08:15;;;;;;;13.00;9.67;;;10.40;99.90;;;;;;4966213;28;20473;-61
2021/08/24 05:10:42;;;;;;;16.57;10.43;;;10.40;99.90;;;;;;4960942;28;20789;-61
2021/08/24 05:13:09;;;;;;;15.50;9.53;;;10.40;99.90;;;;;;4975548;28;20469;-61
2021/08/24 05:15:36;;;;;;;12.33;8.83;;;10.50;99.90;;;;;;4979843;28;20484;-61
2021/08/24 05:18:05;;;;;;;11.37;8.73;;;10.50;99.90;;;;;;4979977;28;20840;-61
2021/08/24 05:20:32;;;;;;;13.87;9.90;;;10.50;99.90;;;;;;4980316;28;20466;-61
2021/08/24 05:22:59;;;;;;;14.57;10.33;;;10.60;99.90;;;;;;4980359;28;20781;-61
2021/08/24 05:25:29;;;;;;;15.90;11.63;;;10.70;99.90;;;;;;4979529;28;20468;-61
2021/08/24 05:27:56;;;;;;;12.83;10.43;;;10.80;99.90;;;;;;4980431;28;20440;-62
2021/08/24 05:30:25;;;;;;;13.07;10.03;;;10.70;99.90;;;;;;4980074;28;20484;-62
2021/08/24 05:32:54;;;;;;;15.47;10.70;;;10.80;99.90;;;;;;4980425;28;20470;-62
2021/08/24 05:35:22;;;;;;;20.10;10.20;;;10.90;99.90;;;;;;4979905;28;20537;-62
2021/08/24 05:37:56;;;;;;;10.13;9.13;;;11.00;99.90;;;;;;4978715;28;20489;-62
2021/08/24 05:40:23;;;;;;;9.50;8.50;;;11.10;99.90;;;;;;4977209;28;20470;-63
2021/08/24 05:42:51;;;;;;;12.40;9.83;;;11.20;99.90;;;;;;4978945;28;20538;-63
2021/08/24 05:45:18;;;;;;;13.83;9.67;;;11.30;99.90;;;;;;4975760;28;20465;-63
2021/08/24 05:47:45;;;;;;;17.77;10.00;;;11.40;99.90;;;;;;4961455;28;20603;-63
2021/08/24 05:50:13;;;;;;;14.93;9.60;;;11.50;99.90;;;;;;4979035;28;20504;-62
2021/08/24 05:52:42;;;;;;;12.37;9.70;;;11.50;99.90;;;;;;4979234;28;20537;-63
2021/08/24 05:55:09;;;;;;;14.57;10.20;;;11.70;99.90;;;;;;4979839;28;20525;-63
2021/08/24 05:57:37;;;;;;;16.70;10.87;;;11.80;99.90;;;;;;4979269;28;20560;-63
2021/08/24 06:00:09;;;;;;;14.60;10.07;;;12.00;99.90;;;;;;4970985;28;20511;-63
2021/08/24 06:02:36;;;;;;;14.80;10.40;;;12.10;99.90;;;;;;4978765;28;20572;-63
2021/08/24 06:05:04;;;;;;;17.03;11.20;;;12.20;99.90;;;;;;4979796;28;20500;-63
2021/08/24 06:07:31;;;;;;;21.30;11.00;;;12.40;99.90;;;;;;4979052;28;20497;-63
2021/08/24 06:09:59;;;;;;;13.27;11.13;;;12.60;99.90;;;;;;4979090;28;20501;-63
2021/08/24 06:12:26;;;;;;;12.77;11.07;;;12.80;99.90;;;;;;4979593;28;20524;-63
2021/08/24 06:14:53;;;;;;;17.20;12.63;;;12.90;99.90;;;;;;4979252;28;20942;-63
2021/08/24 06:17:21;;;;;;;18.47;11.20;;;13.00;99.90;;;;;;4979338;28;20844;-63
2021/08/24 06:19:48;;;;;;;16.33;11.27;;;13.20;99.90;;;;;;4979233;28;20898;-63
2021/08/24 06:22:15;;;;;;;19.47;13.40;;;13.40;99.90;;;;;;4979112;28;20549;-63
2021/08/24 06:24:43;;;;;;;18.40;11.10;;;13.60;99.90;;;;;;4972800;28;20500;-63
2021/08/24 06:27:10;;;;;;;17.90;9.93;;;13.80;99.90;;;;;;4978004;28;20516;-63
2021/08/24 06:29:40;;;;;;;12.20;8.23;;;14.00;99.90;;;;;;4963835;28;20530;-64
2021/08/24 06:32:10;;;;;;;11.80;7.63;;;14.20;99.90;;;;;;4972620;28;20524;-64
2021/08/24 06:34:39;;;;;;;8.47;6.80;;;14.40;99.90;;;;;;4972025;28;20921;-64
2021/08/24 06:37:06;;;;;;;8.80;7.60;;;14.60;99.90;;;;;;4967006;28;20470;-64
2021/08/24 06:39:33;;;;;;;7.57;6.97;;;14.80;99.90;;;;;;4978143;28;20765;-64
2021/08/24 06:42:07;;;;;;;7.83;7.13;;;14.90;99.90;;;;;;4978714;28;20520;-64
2021/08/24 06:44:34;;;;;;;7.43;6.17;;;15.20;99.90;;;;;;4974469;28;20807;-64
2021/08/24 06:47:03;;;;;;;5.93;5.33;;;15.40;99.90;;;;;;4967236;28;20498;-64
2021/08/24 06:49:36;;;;;;;7.53;6.43;;;15.50;99.90;;;;;;4972795;28;20474;-63
2021/08/24 06:52:07;;;;;;;6.67;6.07;;;15.80;99.90;;;;;;4968489;28;20466;-63
2021/08/24 06:54:43;;;;;;;7.40;6.20;;;15.90;99.90;;;;;;4977354;28;20496;-63
2021/08/24 06:57:09;;;;;;;7.17;5.90;;;16.00;99.90;;;;;;4978555;28;20809;-63
2021/08/24 06:59:39;;;;;;;6.50;5.83;;;15.90;99.90;;;;;;4970173;28;20825;-63
2021/08/24 07:02:10;;;;;;;7.13;6.13;;;16.10;99.90;;;;;;4969446;28;20497;-62
2021/08/24 07:04:37;;;;;;;6.40;5.70;;;16.10;99.90;;;;;;4978512;28;20736;-62
2021/08/24 07:07:06;;;;;;;7.43;6.63;;;16.30;99.90;;;;;;4978350;28;20529;-62
2021/08/24 07:09:33;;;;;;;6.83;6.13;;;16.30;99.90;;;;;;4978509;28;20480;-61
2021/08/24 07:11:59;;;;;;;6.00;5.40;;;16.20;99.90;;;;;;4978357;28;20773;-60
2021/08/24 07:14:26;;;;;;;7.53;6.73;;;16.40;99.90;;;;;;4978384;28;20815;-61
2021/08/24 07:16:56;;;;;;;6.13;5.53;;;16.60;99.90;;;;;;4978245;28;20532;-61
2021/08/24 07:19:27;;;;;;;6.63;5.97;;;16.90;99.90;;;;;;4978521;28;20519;-61
2021/08/24 07:21:54;;;;;;;6.20;5.17;;;17.00;99.90;;;;;;4978295;28;20509;-61
2021/08/24 07:24:22;;;;;;;8.93;6.37;;;17.20;99.90;;;;;;4969463;28;20469;-60
2021/08/24 07:26:49;;;;;;;7.90;5.80;;;16.90;99.90;;;;;;4973525;28;20490;-61
2021/08/24 07:29:16;;;;;;;6.77;6.10;;;17.10;99.90;;;;;;4978632;28;20444;-61
2021/08/24 07:31:45;;;;;;;6.90;5.97;;;17.40;99.90;;;;;;4972263;28;20507;-61
2021/08/24 07:34:14;;;;;;;7.17;5.60;;;17.70;99.90;;;;;;4978183;28;20528;-60
2021/08/24 07:36:41;;;;;;;7.40;4.90;;;17.90;99.90;;;;;;4976878;28;20498;-60
2021/08/24 07:39:08;;;;;;;5.10;4.60;;;18.00;99.90;;;;;;4977051;28;20508;-59
2021/08/24 07:41:36;;;;;;;5.80;4.77;;;18.10;99.90;;;;;;4977326;28;20468;-60
2021/08/24 07:44:03;;;;;;;7.40;5.17;;;18.00;99.90;;;;;;4977222;28;20498;-59
2021/08/24 07:46:30;;;;;;;5.63;5.13;;;17.80;99.90;;;;;;4978368;28;20553;-60
2021/08/24 07:48:58;;;;;;;5.00;4.60;;;18.20;99.90;;;;;;4977471;28;20505;-60
2021/08/24 07:51:28;;;;;;;6.20;5.33;;;18.40;99.90;;;;;;4977077;28;20524;-60
2021/08/24 07:53:55;;;;;;;5.40;4.90;;;18.50;99.90;;;;;;4977884;28;20528;-60
2021/08/24 07:56:22;;;;;;;5.37;4.63;;;18.50;99.90;;;;;;4978068;28;20588;-60
2021/08/24 07:58:54;;;;;;;5.63;5.13;;;18.80;99.90;;;;;;4975976;28;20585;-58
2021/08/24 08:01:21;;;;;;;5.90;5.30;;;19.00;99.90;;;;;;4976922;28;20862;-59
2021/08/24 08:03:48;;;;;;;5.63;4.53;;;19.10;99.90;;;;;;4977493;28;20466;-59
2021/08/24 08:06:15;;;;;;;6.67;5.03;;;19.20;98.10;;;;;;4981386;28;20503;-59
2021/08/24 08:08:42;;;;;;;6.70;5.30;;;19.00;96.60;;;;;;4981336;28;20500;-58
2021/08/24 08:11:09;;;;;;;5.07;4.60;;;19.40;99.20;;;;;;4981640;28;20941;-59
2021/08/24 08:13:37;;;;;;;5.50;4.80;;;19.60;96.70;;;;;;4981540;28;20552;-60
2021/08/24 08:16:05;;;;;;;4.83;4.33;;;19.80;96.30;;;;;;4981626;28;20552;-58
2021/08/24 08:18:32;;;;;;;7.00;5.80;;;19.80;92.50;;;;;;4981244;28;20937;-55
2021/08/24 08:20:59;;;;;;;5.90;5.30;;;20.00;93.60;;;;;;4981901;28;20527;-57
2021/08/24 08:23:26;;;;;;;10.00;4.90;;;20.40;91.70;;;;;;4977864;28;20914;-52
2021/08/24 08:25:53;;;;;;;5.40;4.90;;;20.50;95.00;;;;;;4964868;28;20497;-54
2021/08/24 08:28:23;;;;;;;5.33;4.50;;;20.80;91.50;;;;;;4981234;28;20472;-55
2021/08/24 08:30:50;;;;;;;5.50;5.00;;;20.90;89.80;;;;;;4980836;28;20489;-59
2021/08/24 08:33:18;;;;;;;5.27;4.40;;;20.70;87.70;;;;;;4981422;28;20476;-57
2021/08/24 08:35:47;;;;;;;7.30;3.93;;;20.60;87.80;;;;;;4980493;28;20528;-57
2021/08/24 08:38:14;;;;;;;4.63;4.17;;;20.90;90.90;;;;;;4980057;28;20485;-55
2021/08/24 08:40:49;;;;;;;7.40;3.80;;;21.00;79.60;;;;;;4980897;28;20938;-59
2021/08/24 08:43:28;;;;;;;4.10;3.70;;;20.70;78.70;;;;;;4981119;28;20474;-56
2021/08/24 08:46:01;;;;;;;4.87;4.00;;;21.00;77.50;;;;;;4979806;28;20494;-53
2021/08/24 08:48:41;;;;;;;4.03;3.63;;;20.80;75.50;;;;;;4981243;28;20536;-56
2021/08/24 08:51:24;;;;;;;5.00;3.73;;;20.70;77.00;;;;;;4968642;28;20462;-53
2021/08/24 08:54:08;;;;;;;4.10;3.50;;;20.80;76.10;;;;;;4976162;28;20473;-54
2021/08/24 08:56:45;;;;;;;5.07;3.70;;;20.70;74.60;;;;;;4975222;28;20499;-52
2021/08/24 08:59:16;;;;;;;4.30;3.90;;;20.90;74.20;;;;;;4967313;28;20489;-50
2021/08/24 09:35:38;;;;;;;4.83;4.40;;;22.20;65.00;;;;;;5223086;23;20488;-57
2021/08/24 09:38:16;;;;;;;5.00;3.90;;;22.40;61.70;;;;;;4993658;28;20658;-56
2021/08/24 09:40:45;;;;;;;5.13;4.63;;;22.30;62.70;;;;;;4998728;28;20491;-57
2021/08/24 09:43:27;;;;;;;4.20;3.80;;;22.40;59.50;;;;;;4998956;28;20814;-53
2021/08/24 09:46:04;;;;;;;6.07;4.10;;;22.20;62.30;;;;;;4998777;28;20485;-54
2021/08/24 09:48:46;;;;;;;4.20;3.80;;;22.70;61.70;;;;;;4999427;28;20457;-59
2021/08/24 09:51:33;;;;;;;4.80;4.40;;;23.00;59.50;;;;;;4998827;28;20507;-55
2021/08/24 09:54:03;;;;;;;4.57;4.27;;;22.90;59.60;;;;;;4998908;28;20887;-54
2021/08/24 09:56:36;;;;;;;4.97;4.50;;;23.10;59.40;;;;;;4998617;28;20493;-58
2021/08/24 09:59:05;;;;;;;4.60;4.20;;;23.40;60.50;;;;;;4996933;28;20475;-58
2021/08/24 10:01:47;;;;;;;4.10;3.70;;;23.40;58.30;;;;;;4998288;28;20797;-58
2021/08/24 10:04:16;;;;;;;5.30;4.60;;;23.40;55.50;;;;;;4998694;28;20465;-56
2021/08/24 10:07:00;;;;;;;3.97;3.53;;;23.00;53.40;;;;;;4998520;28;20743;-55
2021/08/24 10:09:30;;;;;;;4.90;4.10;;;22.90;55.60;;;;;;4998507;28;20755;-58
2021/08/24 10:12:21;;;;;;;4.20;3.80;;;23.00;54.00;;;;;;4998035;28;20471;-59
2021/08/24 10:14:49;;;;;;;4.93;4.20;;;22.90;53.60;;;;;;4998553;28;20917;-57
2021/08/24 10:17:27;;;;;;;4.23;3.37;;;23.20;54.10;;;;;;4998543;28;20529;-58
2021/08/24 10:19:56;;;;;;;4.60;4.20;;;23.40;55.60;;;;;;4998082;28;20496;-57
2021/08/24 10:22:30;;;;;;;5.17;4.07;;;23.10;55.40;;;;;;4998403;28;20469;-56
2021/08/24 10:25:02;;;;;;;3.80;3.43;;;23.40;54.70;;;;;;4985498;28;20838;-58
2021/08/24 10:27:32;;;;;;;3.63;3.23;;;23.10;53.50;;;;;;4997517;28;20802;-55
2021/08/24 10:30:04;;;;;;;5.17;3.63;;;22.90;53.50;;;;;;4991612;28;20458;-57
2021/08/24 10:32:38;;;;;;;6.67;4.33;;;22.90;53.00;;;;;;4980780;28;20462;-57
2021/08/24 10:35:24;;;;;;;4.30;3.90;;;23.20;53.80;;;;;;4985356;28;20559;-57
2021/08/24 10:37:54;;;;;;;5.20;3.80;;;23.10;54.40;;;;;;4994138;28;20538;-55
2021/08/24 10:40:27;;;;;;;6.53;4.00;;;23.50;54.50;;;;;;4983577;28;20468;-54
2021/08/24 10:43:16;;;;;;;4.30;3.90;;;23.80;53.80;;;;;;4998045;28;20504;-56
2021/08/24 11:20:26;;;;;;;5.20;4.30;;;24.50;49.50;;;;;;2811624;23;20497;-51
2021/08/24 11:23:07;;;;;;;7.50;4.60;;;24.20;50.30;;;;;;4997294;28;20499;-54
2021/08/24 11:25:40;;;;;;;5.00;4.60;;;24.00;50.30;;;;;;4994801;28;20478;-47
2021/08/24 11:28:13;;;;;;;6.17;4.47;;;23.80;50.00;;;;;;4996502;28;20901;-54
2021/08/24 11:30:43;;;;;;;9.87;3.97;;;23.80;51.20;;;;;;4996290;28;20508;-53
2021/08/24 11:33:14;;;;;;;4.83;4.27;;;24.00;52.20;;;;;;4996113;28;20828;-50
2021/08/24 11:35:49;;;;;;;4.30;3.90;;;24.40;51.00;;;;;;4995262;28;20527;-53
2021/08/24 11:38:20;;;;;;;4.80;4.30;;;24.30;51.30;;;;;;4987691;28;20909;-52
2021/08/24 11:40:56;;;;;;;4.70;4.30;;;23.90;51.00;;;;;;5000297;28;20566;-54
2021/08/24 12:17:28;;;;;;;4.17;3.83;;;24.80;49.10;;;;;;4328253;23;20574;-58
2021/08/24 12:19:58;;;;;;;5.53;5.03;;;24.20;50.00;;;;;;5007755;28;20812;-57
2021/08/24 12:22:32;;;;;;;6.10;4.60;;;23.90;49.70;;;;;;5014045;28;20456;-54
2021/08/24 12:25:12;;;;;;;4.70;4.03;;;24.60;50.60;;;;;;5007461;28;20510;-55
2021/08/24 12:27:58;;;;;;;5.40;4.70;;;25.30;50.90;;;;;;5009817;28;20522;-57
2021/08/24 12:30:29;;;;;;;4.57;4.17;;;24.80;49.50;;;;;;5013461;28;20467;-58
2021/08/24 12:33:20;;;;;;;4.90;3.80;;;25.30;50.30;;;;;;5009154;28;20475;-55
2021/08/24 12:35:47;;;;;;;5.10;4.60;;;24.70;50.00;;;;;;5012843;28;20461;-57
2021/08/24 12:38:43;;;;;;;4.60;4.20;;;25.40;49.60;;;;;;5005553;28;20582;-57
2021/08/24 12:41:31;;;;;;;6.27;4.50;;;25.90;49.30;;;;;;5010109;28;20497;-58
2021/08/24 12:44:18;;;;;;;6.23;4.90;;;25.80;48.10;;;;;;5011593;28;20531;-57
2021/08/24 12:46:46;;;;;;;4.90;4.50;;;25.80;47.80;;;;;;5008993;28;20820;-57
2021/08/24 12:49:33;;;;;;;5.40;4.90;;;25.80;47.00;;;;;;5004922;28;20457;-56
2021/08/24 12:52:35;;;;;;;6.20;4.23;;;26.10;46.00;;;;;;5003485;28;20500;-55
2021/08/24 12:55:37;;;;;;;7.60;5.10;;;26.40;47.20;;;;;;5004736;28;20876;-57
2021/08/24 12:58:13;;;;;;;5.10;4.63;;;26.90;44.00;;;;;;5005756;28;20548;-58
2021/08/24 13:01:04;;;;;;;5.37;4.40;;;26.50;45.50;;;;;;5012811;28;20499;-56
2021/08/24 13:03:32;;;;;;;4.80;4.20;;;26.60;46.10;;;;;;5018198;28;20499;-57
2021/08/24 13:06:22;;;;;;;7.37;5.77;;;26.30;47.00;;;;;;5018788;28;20579;-57
2021/08/24 13:09:13;;;;;;;5.93;4.97;;;26.60;47.50;;;;;;5018332;28;20472;-54
2021/08/24 13:11:42;;;;;;;8.50;5.47;;;26.50;46.90;;;;;;5014406;28;20491;-58
2021/08/24 13:14:32;;;;;;;5.47;4.70;;;25.00;48.40;;;;;;5005233;28;20456;-52
2021/08/24 13:17:02;;;;;;;5.50;3.70;;;24.20;48.40;;;;;;5018442;28;20500;-58
2021/08/24 13:19:36;;;;;;;5.57;5.00;;;24.10;49.10;;;;;;5019365;28;20475;-59
2021/08/24 13:22:07;;;;;;;6.53;4.20;;;24.30;49.60;;;;;;5019284;28;20464;-58
2021/08/24 13:24:37;;;;;;;4.63;4.17;;;24.80;50.30;;;;;;5016247;28;20506;-57
2021/08/24 13:27:08;;;;;;;6.27;3.90;;;25.20;49.20;;;;;;5015348;28;20461;-58
2021/08/24 13:29:41;;;;;;;5.37;4.20;;;25.20;49.40;;;;;;5007452;28;20563;-56
2021/08/24 13:32:21;;;;;;;4.80;4.30;;;25.40;49.30;;;;;;5019144;28;20550;-59
2021/08/24 13:34:51;;;;;;;5.50;3.57;;;25.40;48.80;;;;;;5007877;28;20832;-56
2021/08/24 13:37:35;;;;;;;5.87;4.10;;;25.00;50.10;;;;;;4999041;28;20532;-53
2021/08/24 13:40:09;;;;;;;5.50;4.07;;;25.30;49.80;;;;;;5013680;28;20499;-54
2021/08/24 13:42:40;;;;;;;3.90;3.60;;;25.50;49.40;;;;;;5018350;28;20468;-57
2021/08/24 13:45:14;;;;;;;4.20;3.80;;;25.60;47.80;;;;;;5018702;28;20506;-56
2021/08/24 13:47:47;;;;;;;4.63;4.23;;;24.70;47.40;;;;;;5018842;28;20538;-53
2021/08/24 13:50:26;;;;;;;3.80;3.50;;;23.40;48.60;;;;;;5018951;28;20538;-54
2021/08/24 13:53:05;;;;;;;5.17;3.80;;;23.30;50.60;;;;;;5011656;28;20523;-56
2021/08/24 13:55:38;;;;;;;4.60;3.43;;;23.60;50.70;;;;;;4998590;28;20461;-55
2021/08/24 13:58:19;;;;;;;4.37;3.93;;;23.40;50.20;;;;;;5017318;28;20498;-56
2021/08/24 14:00:58;;;;;;;4.30;3.90;;;24.10;51.30;;;;;;5017844;28;20927;-58
2021/08/24 14:03:26;;;;;;;4.10;3.70;;;24.70;50.00;;;;;;5018075;28;20470;-58
2021/08/24 14:05:57;;;;;;;4.20;3.80;;;24.50;49.00;;;;;;5018599;28;20464;-55
2021/08/24 14:08:26;;;;;;;6.07;5.00;;;24.80;49.20;;;;;;5018503;28;20539;-56
2021/08/24 14:10:59;;;;;;;3.87;3.47;;;25.30;48.70;;;;;;5018844;28;20507;-57
2021/08/24 14:13:27;;;;;;;4.50;3.87;;;25.80;47.80;;;;;;5018237;28;20503;-56
2021/08/24 14:15:57;;;;;;;4.70;4.30;;;25.40;47.70;;;;;;5017528;28;20492;-53
2021/08/24 14:18:30;;;;;;;4.73;3.53;;;25.60;48.50;;;;;;5018639;28;20550;-57
2021/08/24 14:21:00;;;;;;;4.77;4.37;;;25.90;47.70;;;;;;5018160;28;20534;-57
2021/08/24 14:23:38;;;;;;;5.40;3.70;;;25.80;48.00;;;;;;5016943;28;20884;-57
2021/08/24 14:26:09;;;;;;;5.03;4.20;;;25.90;47.50;;;;;;4998909;28;20464;-57
2021/08/24 14:28:41;;;;;;;3.63;3.43;;;25.60;47.60;;;;;;5011558;28;20471;-57
2021/08/24 14:31:14;;;;;;;4.17;3.73;;;25.30;48.00;;;;;;5018052;28;20500;-53
2021/08/24 14:33:45;;;;;;;3.63;3.33;;;24.60;48.30;;;;;;5018366;28;20492;-55
2021/08/24 14:36:25;;;;;;;4.93;4.43;;;24.50;48.40;;;;;;5017950;28;20472;-52
2021/08/24 15:12:30;;;;;;;4.83;4.40;;;22.90;51.00;;;;;;3584360;23;20635;-56
2021/08/24 15:15:00;;;;;;;4.57;4.17;;;23.30;51.60;;;;;;4997345;28;20470;-59
2021/08/24 15:17:31;;;;;;;4.00;3.70;;;23.60;51.20;;;;;;4993558;28;20942;-55
2021/08/24 15:20:06;;;;;;;5.87;3.80;;;24.20;51.70;;;;;;4990590;28;20496;-53
2021/08/24 15:22:34;;;;;;;4.23;3.83;;;24.40;50.50;;;;;;4998154;28;20465;-55